sensor_id;sensor_type;location;lat;lon;timestamp;pressure;altitude;pressure_sealevel;temperature;humidity
16331;BME280;8275;48.206;16.340;2024-02-21T00:01:16;100159.59;;;13.88;43.15
16331;BME280;8275;48.206;16.340;2024-02-21T00:03:46;100150.97;;;13.84;43.09
16331;BME280;8275;48.206;16.340;2024-02-21T00:06:14;100148.22;;;13.84;43.22
16331;BME280;8275;48.206;16.340;2024-02-21T00:08:43;100147.66;;;13.82;43.08
16331;BME280;8275;48.206;16.340;2024-02-21T00:11:11;100146.81;;;13.82;42.96
16331;BME280;8275;48.206;16.340;2024-02-21T00:13:40;100142.41;;;13.81;43.02
16331;BME280;8275;48.206;16.340;2024-02-21T00:16:08;100144.59;;;13.79;42.69
16331;BME280;8275;48.206;16.340;2024-02-21T00:18:37;100141.84;;;13.79;42.85
16331;BME280;8275;48.206;16.340;2024-02-21T00:21:07;100153.09;;;13.77;42.70
16331;BME280;8275;48.206;16.340;2024-02-21T00:23:36;100148.69;;;13.76;42.44
16331;BME280;8275;48.206;16.340;2024-02-21T00:26:04;100148.34;;;13.73;42.34
16331;BME280;8275;48.206;16.340;2024-02-21T00:28:33;100145.88;;;13.71;42.38
16331;BME280;8275;48.206;16.340;2024-02-21T00:31:01;100141.69;;;13.69;42.58
16331;BME280;8275;48.206;16.340;2024-02-21T00:33:30;100143.09;;;13.71;42.58
16331;BME280;8275;48.206;16.340;2024-02-21T00:35:58;100129.34;;;13.71;42.48
16331;BME280;8275;48.206;16.340;2024-02-21T00:38:28;100129.06;;;13.73;42.53
16331;BME280;8275;48.206;16.340;2024-02-21T00:40:57;100127.16;;;13.73;42.62
16331;BME280;8275;48.206;16.340;2024-02-21T00:43:25;100125.25;;;13.74;42.38
16331;BME280;8275;48.206;16.340;2024-02-21T00:45:53;100126.09;;;13.74;42.16
16331;BME280;8275;48.206;16.340;2024-02-21T00:48:22;100126.09;;;13.74;42.10
16331;BME280;8275;48.206;16.340;2024-02-21T00:50:50;100120.81;;;13.73;41.86
16331;BME280;8275;48.206;16.340;2024-02-21T00:53:19;100122.50;;;13.74;41.75
16331;BME280;8275;48.206;16.340;2024-02-21T00:55:49;100107.88;;;13.73;41.96
16331;BME280;8275;48.206;16.340;2024-02-21T00:58:17;100113.66;;;13.72;41.96
16331;BME280;8275;48.206;16.340;2024-02-21T01:00:46;100119.41;;;13.70;42.04
16331;BME280;8275;48.206;16.340;2024-02-21T01:03:14;100113.66;;;13.72;41.90
16331;BME280;8275;48.206;16.340;2024-02-21T01:05:43;100121.06;;;13.71;41.84
16331;BME280;8275;48.206;16.340;2024-02-21T01:08:12;100114.72;;;13.71;41.62
16331;BME280;8275;48.206;16.340;2024-02-21T01:10:40;100105.63;;;13.70;41.53
16331;BME280;8275;48.206;16.340;2024-02-21T01:13:10;100105.06;;;13.68;41.39
16331;BME280;8275;48.206;16.340;2024-02-21T01:15:38;100106.41;;;13.66;41.38
16331;BME280;8275;48.206;16.340;2024-02-21T01:18:07;100103.66;;;13.66;41.30
16331;BME280;8275;48.206;16.340;2024-02-21T01:20:36;100094.81;;;13.64;41.14
16331;BME280;8275;48.206;16.340;2024-02-21T01:23:04;100095.09;;;13.62;41.25
16331;BME280;8275;48.206;16.340;2024-02-21T01:25:33;100093.66;;;13.60;41.34
16331;BME280;8275;48.206;16.340;2024-02-21T01:28:01;100088.16;;;13.60;41.33
16331;BME280;8275;48.206;16.340;2024-02-21T01:30:31;100080.19;;;13.58;41.35
16331;BME280;8275;48.206;16.340;2024-02-21T01:33:00;100081.81;;;13.59;41.22
16331;BME280;8275;48.206;16.340;2024-02-21T01:35:29;100082.66;;;13.60;41.29
16331;BME280;8275;48.206;16.340;2024-02-21T01:37:58;100090.09;;;13.59;41.28
16331;BME280;8275;48.206;16.340;2024-02-21T01:40:26;100084.00;;;13.57;40.92
16331;BME280;8275;48.206;16.340;2024-02-21T01:42:56;100080.69;;;13.55;41.22
16331;BME280;8275;48.206;16.340;2024-02-21T01:45:24;100079.00;;;13.54;41.04
16331;BME280;8275;48.206;16.340;2024-02-21T01:47:54;100071.84;;;13.53;41.32
16331;BME280;8275;48.206;16.340;2024-02-21T01:50:23;100075.44;;;13.54;41.25
16331;BME280;8275;48.206;16.340;2024-02-21T01:52:52;100072.91;;;13.52;41.31
16331;BME280;8275;48.206;16.340;2024-02-21T01:55:21;100066.34;;;13.53;41.48
16331;BME280;8275;48.206;16.340;2024-02-21T01:57:50;100066.34;;;13.53;41.15
16331;BME280;8275;48.206;16.340;2024-02-21T02:00:19;100073.50;;;13.54;41.28
16331;BME280;8275;48.206;16.340;2024-02-21T02:02:48;100060.84;;;13.53;41.14
16331;BME280;8275;48.206;16.340;2024-02-21T02:05:18;100052.81;;;13.52;41.30
16331;BME280;8275;48.206;16.340;2024-02-21T02:07:48;100042.63;;;13.52;41.34
16331;BME280;8275;48.206;16.340;2024-02-21T02:10:16;100058.09;;;13.53;41.48
16331;BME280;8275;48.206;16.340;2024-02-21T02:12:45;100048.16;;;13.52;41.31
16331;BME280;8275;48.206;16.340;2024-02-21T02:15:13;100049.25;;;13.51;41.10
16331;BME280;8275;48.206;16.340;2024-02-21T02:17:42;100038.25;;;13.51;41.19
16331;BME280;8275;48.206;16.340;2024-02-21T02:20:12;100044.81;;;13.50;41.38
16331;BME280;8275;48.206;16.340;2024-02-21T02:22:44;100046.75;;;13.50;41.33
16331;BME280;8275;48.206;16.340;2024-02-21T02:25:16;100040.38;;;13.49;41.47
16331;BME280;8275;48.206;16.340;2024-02-21T02:27:45;100042.06;;;13.50;41.39
16331;BME280;8275;48.206;16.340;2024-02-21T02:30:14;100044.25;;;13.48;41.27
16331;BME280;8275;48.206;16.340;2024-02-21T02:32:45;100040.66;;;13.48;41.42
16331;BME280;8275;48.206;16.340;2024-02-21T02:35:14;100038.75;;;13.48;41.33
16331;BME280;8275;48.206;16.340;2024-02-21T02:37:48;100040.09;;;13.46;41.44
16331;BME280;8275;48.206;16.340;2024-02-21T02:40:19;100032.66;;;13.46;41.23
16331;BME280;8275;48.206;16.340;2024-02-21T02:42:48;100028.81;;;13.47;41.16
16331;BME280;8275;48.206;16.340;2024-02-21T02:45:17;100035.66;;;13.45;41.09
16331;BME280;8275;48.206;16.340;2024-02-21T02:47:46;100039.25;;;13.45;41.08
16331;BME280;8275;48.206;16.340;2024-02-21T02:50:15;100027.41;;;13.45;41.26
16331;BME280;8275;48.206;16.340;2024-02-21T02:52:44;100029.06;;;13.46;41.22
16331;BME280;8275;48.206;16.340;2024-02-21T02:55:12;100027.41;;;13.45;41.20
16331;BME280;8275;48.206;16.340;2024-02-21T02:57:42;100019.13;;;13.45;41.08
16331;BME280;8275;48.206;16.340;2024-02-21T03:00:12;100019.13;;;13.45;41.39
16331;BME280;8275;48.206;16.340;2024-02-21T03:02:43;100016.16;;;13.46;41.53
16331;BME280;8275;48.206;16.340;2024-02-21T03:05:15;100011.72;;;13.45;41.28
16331;BME280;8275;48.206;16.340;2024-02-21T03:07:44;100015.06;;;13.47;41.39
16331;BME280;8275;48.206;16.340;2024-02-21T03:10:14;100006.22;;;13.45;41.19
16331;BME280;8275;48.206;16.340;2024-02-21T03:12:46;100017.00;;;13.47;41.27
16331;BME280;8275;48.206;16.340;2024-02-21T03:15:15;100014.81;;;13.49;41.44
16331;BME280;8275;48.206;16.340;2024-02-21T03:17:43;100001.63;;;13.51;41.31
16331;BME280;8275;48.206;16.340;2024-02-21T03:20:12;100009.38;;;13.54;41.51
16331;BME280;8275;48.206;16.340;2024-02-21T03:22:41;100000.84;;;13.55;41.41
16331;BME280;8275;48.206;16.340;2024-02-21T03:25:09;100005.00;;;13.58;41.32
16331;BME280;8275;48.206;16.340;2024-02-21T03:27:39;100001.97;;;13.59;41.43
16331;BME280;8275;48.206;16.340;2024-02-21T03:30:10;100006.41;;;13.60;41.41
16331;BME280;8275;48.206;16.340;2024-02-21T03:32:39;100003.13;;;13.63;41.61
16331;BME280;8275;48.206;16.340;2024-02-21T03:35:08;100005.88;;;13.63;41.47
16331;BME280;8275;48.206;16.340;2024-02-21T03:37:37;100011.94;;;13.65;41.32
16331;BME280;8275;48.206;16.340;2024-02-21T03:40:10;100008.41;;;13.65;41.48
16331;BME280;8275;48.206;16.340;2024-02-21T03:42:39;100005.38;;;13.66;41.49
16331;BME280;8275;48.206;16.340;2024-02-21T03:45:09;100011.94;;;13.65;41.61
16331;BME280;8275;48.206;16.340;2024-02-21T03:47:38;100015.53;;;13.66;41.73
16331;BME280;8275;48.206;16.340;2024-02-21T03:50:08;100019.41;;;13.65;41.76
16331;BME280;8275;48.206;16.340;2024-02-21T03:52:37;100019.63;;;13.63;41.71
16331;BME280;8275;48.206;16.340;2024-02-21T03:55:06;100020.75;;;13.62;41.72
16331;BME280;8275;48.206;16.340;2024-02-21T03:57:35;100024.28;;;13.58;41.83
16331;BME280;8275;48.206;16.340;2024-02-21T04:00:06;100018.19;;;13.56;41.77
16331;BME280;8275;48.206;16.340;2024-02-21T04:02:40;100024.47;;;13.51;41.75
16331;BME280;8275;48.206;16.340;2024-02-21T04:05:08;100015.06;;;13.47;41.84
16331;BME280;8275;48.206;16.340;2024-02-21T04:07:39;100016.66;;;13.43;41.97
16331;BME280;8275;48.206;16.340;2024-02-21T04:10:08;100018.53;;;13.38;42.00
16331;BME280;8275;48.206;16.340;2024-02-21T04:12:37;100016.78;;;13.31;41.88
16331;BME280;8275;48.206;16.340;2024-02-21T04:15:07;100018.66;;;13.26;42.08
16331;BME280;8275;48.206;16.340;2024-02-21T04:17:36;100021.56;;;13.19;42.22
16331;BME280;8275;48.206;16.340;2024-02-21T04:20:13;100026.19;;;13.14;42.20
16331;BME280;8275;48.206;16.340;2024-02-21T04:22:43;100020.34;;;13.10;42.26
16331;BME280;8275;48.206;16.340;2024-02-21T04:25:12;100012.63;;;13.07;42.25
16331;BME280;8275;48.206;16.340;2024-02-21T04:27:41;100023.25;;;13.04;42.53
16331;BME280;8275;48.206;16.340;2024-02-21T04:30:10;100014.44;;;13.02;42.54
16331;BME280;8275;48.206;16.340;2024-02-21T04:32:39;100015.00;;;13.04;42.50
16331;BME280;8275;48.206;16.340;2024-02-21T04:35:09;100015.00;;;13.04;42.56
16331;BME280;8275;48.206;16.340;2024-02-21T04:37:38;100010.94;;;13.06;42.54
16331;BME280;8275;48.206;16.340;2024-02-21T04:40:08;100017.88;;;13.09;42.70
16331;BME280;8275;48.206;16.340;2024-02-21T04:42:37;100014.63;;;13.12;42.71
16331;BME280;8275;48.206;16.340;2024-02-21T04:45:07;100013.00;;;13.16;42.68
16331;BME280;8275;48.206;16.340;2024-02-21T04:47:36;100008.44;;;13.21;42.54
16331;BME280;8275;48.206;16.340;2024-02-21T04:50:06;100009.56;;;13.25;42.51
16331;BME280;8275;48.206;16.340;2024-02-21T04:52:36;100015.38;;;13.29;42.54
16331;BME280;8275;48.206;16.340;2024-02-21T04:55:06;100009.38;;;13.32;42.39
16331;BME280;8275;48.206;16.340;2024-02-21T04:57:34;100007.75;;;13.36;42.46
16331;BME280;8275;48.206;16.340;2024-02-21T05:00:04;100009.16;;;13.38;42.44
16331;BME280;8275;48.206;16.340;2024-02-21T05:02:32;99991.31;;;13.41;42.42
16331;BME280;8275;48.206;16.340;2024-02-21T05:05:01;99999.88;;;13.45;42.21
16331;BME280;8275;48.206;16.340;2024-02-21T05:07:30;99998.28;;;13.49;42.22
16331;BME280;8275;48.206;16.340;2024-02-21T05:10:00;99998.03;;;13.50;42.09
16331;BME280;8275;48.206;16.340;2024-02-21T05:12:28;100001.91;;;13.54;42.25
16331;BME280;8275;48.206;16.340;2024-02-21T05:14:57;100002.25;;;13.58;42.09
16331;BME280;8275;48.206;16.340;2024-02-21T05:17:26;99994.56;;;13.60;42.11
16331;BME280;8275;48.206;16.340;2024-02-21T05:19:55;99988.56;;;13.63;42.17
16331;BME280;8275;48.206;16.340;2024-02-21T05:22:24;99987.16;;;13.65;42.03
16331;BME280;8275;48.206;16.340;2024-02-21T05:24:53;99981.44;;;13.67;42.13
16331;BME280;8275;48.206;16.340;2024-02-21T05:27:22;99979.25;;;13.69;42.08
16331;BME280;8275;48.206;16.340;2024-02-21T05:29:51;99971.81;;;13.69;42.03
16331;BME280;8275;48.206;16.340;2024-02-21T05:32:19;99967.97;;;13.70;41.96
16331;BME280;8275;48.206;16.340;2024-02-21T05:34:49;99979.81;;;13.71;41.87
16331;BME280;8275;48.206;16.340;2024-02-21T05:37:18;99978.72;;;13.72;41.93
16331;BME280;8275;48.206;16.340;2024-02-21T05:39:46;99975.97;;;13.72;41.78
16331;BME280;8275;48.206;16.340;2024-02-21T05:42:15;99978.19;;;13.75;41.80
16331;BME280;8275;48.206;16.340;2024-02-21T05:44:45;99973.78;;;13.74;41.78
16331;BME280;8275;48.206;16.340;2024-02-21T05:47:13;99970.78;;;13.75;41.50
16331;BME280;8275;48.206;16.340;2024-02-21T05:49:42;99968.00;;;13.75;41.62
16331;BME280;8275;48.206;16.340;2024-02-21T05:52:11;99964.44;;;13.75;41.50
16331;BME280;8275;48.206;16.340;2024-02-21T05:54:40;99972.97;;;13.73;41.40
16331;BME280;8275;48.206;16.340;2024-02-21T05:57:08;99976.78;;;13.72;41.49
16331;BME280;8275;48.206;16.340;2024-02-21T05:59:38;99978.72;;;13.72;41.36
16331;BME280;8275;48.206;16.340;2024-02-21T06:02:10;99968.81;;;13.71;41.39
16331;BME280;8275;48.206;16.340;2024-02-21T06:04:40;99964.97;;;13.72;41.26
16331;BME280;8275;48.206;16.340;2024-02-21T06:07:10;99971.28;;;13.72;41.30
16331;BME280;8275;48.206;16.340;2024-02-21T06:09:38;99956.72;;;13.72;41.31
16331;BME280;8275;48.206;16.340;2024-02-21T06:12:07;99964.97;;;13.72;41.04
16331;BME280;8275;48.206;16.340;2024-02-21T06:14:35;99972.38;;;13.71;40.80
16331;BME280;8275;48.206;16.340;2024-02-21T06:17:04;99968.53;;;13.72;40.80
16331;BME280;8275;48.206;16.340;2024-02-21T06:19:34;99964.97;;;13.72;40.64
16331;BME280;8275;48.206;16.340;2024-02-21T06:22:03;99958.13;;;13.74;40.21
16331;BME280;8275;48.206;16.340;2024-02-21T06:24:35;99962.22;;;13.72;39.91
16331;BME280;8275;48.206;16.340;2024-02-21T06:27:04;99962.22;;;13.72;39.81
16331;BME280;8275;48.206;16.340;2024-02-21T06:29:37;99956.94;;;13.70;39.82
16331;BME280;8275;48.206;16.340;2024-02-21T06:32:06;99950.38;;;13.71;39.97
16331;BME280;8275;48.206;16.340;2024-02-21T06:34:35;99951.19;;;13.72;39.99
16331;BME280;8275;48.206;16.340;2024-02-21T06:37:04;99958.13;;;13.74;39.96
16331;BME280;8275;48.206;16.340;2024-02-21T06:39:33;99957.00;;;13.75;39.55
16331;BME280;8275;48.206;16.340;2024-02-21T06:42:01;99963.34;;;13.76;39.65
16331;BME280;8275;48.206;16.340;2024-02-21T06:44:30;99960.31;;;13.77;39.91
16331;BME280;8275;48.206;16.340;2024-02-21T06:46:59;99964.22;;;13.81;39.76
16331;BME280;8275;48.206;16.340;2024-02-21T06:49:27;99956.53;;;13.83;39.71
16331;BME280;8275;48.206;16.340;2024-02-21T06:51:57;99959.88;;;13.85;39.71
16331;BME280;8275;48.206;16.340;2024-02-21T06:54:26;99964.31;;;13.91;39.79
16331;BME280;8275;48.206;16.340;2024-02-21T06:56:54;99953.34;;;13.96;39.88
16331;BME280;8275;48.206;16.340;2024-02-21T06:59:23;99958.06;;;14.01;39.86
16331;BME280;8275;48.206;16.340;2024-02-21T07:01:54;99958.13;;;14.06;39.79
16331;BME280;8275;48.206;16.340;2024-02-21T07:04:22;99951.84;;;14.11;39.76
16331;BME280;8275;48.206;16.340;2024-02-21T07:06:51;99954.88;;;14.14;39.86
16331;BME280;8275;48.206;16.340;2024-02-21T07:09:21;99951.88;;;14.16;39.64
16331;BME280;8275;48.206;16.340;2024-02-21T07:11:49;99948.56;;;14.19;39.58
16331;BME280;8275;48.206;16.340;2024-02-21T07:14:18;99949.69;;;14.18;39.61
16331;BME280;8275;48.206;16.340;2024-02-21T07:16:47;99947.50;;;14.20;39.67
16331;BME280;8275;48.206;16.340;2024-02-21T07:19:15;99951.09;;;14.20;39.64
16331;BME280;8275;48.206;16.340;2024-02-21T07:21:44;99958.81;;;14.23;39.51
16331;BME280;8275;48.206;16.340;2024-02-21T07:24:12;99939.00;;;14.26;39.62
16331;BME280;8275;48.206;16.340;2024-02-21T07:26:43;99940.06;;;14.25;39.07
16331;BME280;8275;48.206;16.340;2024-02-21T07:29:12;99934.88;;;14.29;39.10
16331;BME280;8275;48.206;16.340;2024-02-21T07:31:41;99930.53;;;14.33;38.93
16331;BME280;8275;48.206;16.340;2024-02-21T07:34:10;99929.50;;;14.39;38.92
16331;BME280;8275;48.206;16.340;2024-02-21T07:36:39;99923.47;;;14.47;38.91
16331;BME280;8275;48.206;16.340;2024-02-21T07:39:07;99927.38;;;14.56;39.04
16331;BME280;8275;48.206;16.340;2024-02-21T07:41:35;99923.03;;;14.65;38.91
16331;BME280;8275;48.206;16.340;2024-02-21T07:44:07;99922.78;;;14.71;38.82
16331;BME280;8275;48.206;16.340;2024-02-21T07:46:35;99927.25;;;14.77;38.86
16331;BME280;8275;48.206;16.340;2024-02-21T07:49:04;99919.25;;;14.81;38.19
16331;BME280;8275;48.206;16.340;2024-02-21T07:51:32;99919.81;;;14.83;37.95
16331;BME280;8275;48.206;16.340;2024-02-21T07:54:00;99924.25;;;14.84;37.90
16331;BME280;8275;48.206;16.340;2024-02-21T07:56:29;99916.00;;;14.89;38.00
16331;BME280;8275;48.206;16.340;2024-02-21T07:58:58;99915.19;;;14.94;38.09
16331;BME280;8275;48.206;16.340;2024-02-21T08:01:28;99913.28;;;15.04;37.83
16331;BME280;8275;48.206;16.340;2024-02-21T08:03:56;99915.53;;;15.17;37.76
16331;BME280;8275;48.206;16.340;2024-02-21T08:06:26;99907.03;;;15.29;37.49
16331;BME280;8275;48.206;16.340;2024-02-21T08:08:54;99906.22;;;15.38;37.42
16331;BME280;8275;48.206;16.340;2024-02-21T08:11:24;99910.72;;;15.44;37.20
16331;BME280;8275;48.206;16.340;2024-02-21T08:13:52;99906.56;;;15.47;36.36
16331;BME280;8275;48.206;16.340;2024-02-21T08:16:21;99911.00;;;15.53;36.82
16331;BME280;8275;48.206;16.340;2024-02-21T08:18:51;99897.75;;;15.65;36.41
16331;BME280;8275;48.206;16.340;2024-02-21T08:21:19;99896.38;;;15.83;36.91
16331;BME280;8275;48.206;16.340;2024-02-21T08:23:48;99897.75;;;16.00;36.08
16331;BME280;8275;48.206;16.340;2024-02-21T08:26:18;99895.56;;;16.17;35.46
16331;BME280;8275;48.206;16.340;2024-02-21T08:28:47;99899.97;;;16.29;34.71
16331;BME280;8275;48.206;16.340;2024-02-21T08:31:19;99884.47;;;16.38;34.69
16331;BME280;8275;48.206;16.340;2024-02-21T08:33:48;99898.00;;;16.49;34.86
16331;BME280;8275;48.206;16.340;2024-02-21T08:36:20;99889.41;;;16.66;35.06
16331;BME280;8275;48.206;16.340;2024-02-21T08:38:48;99885.50;;;16.82;35.08
16331;BME280;8275;48.206;16.340;2024-02-21T08:41:17;99882.72;;;16.92;33.73
16331;BME280;8275;48.206;16.340;2024-02-21T08:43:45;99880.44;;;16.99;33.27
16331;BME280;8275;48.206;16.340;2024-02-21T08:46:14;99886.53;;;17.01;33.17
16331;BME280;8275;48.206;16.340;2024-02-21T08:48:43;99878.22;;;17.01;33.42
16331;BME280;8275;48.206;16.340;2024-02-21T08:51:13;99880.16;;;17.01;32.74
16331;BME280;8275;48.206;16.340;2024-02-21T08:53:43;99887.06;;;17.03;33.27
16331;BME280;8275;48.206;16.340;2024-02-21T08:56:12;99882.63;;;17.07;32.80
16331;BME280;8275;48.206;16.340;2024-02-21T08:58:40;99875.16;;;17.08;32.71
16331;BME280;8275;48.206;16.340;2024-02-21T09:01:09;99876.78;;;17.09;33.17
16331;BME280;8275;48.206;16.340;2024-02-21T09:03:38;99870.94;;;17.15;33.18
16331;BME280;8275;48.206;16.340;2024-02-21T09:06:10;99873.94;;;17.29;33.38
16331;BME280;8275;48.206;16.340;2024-02-21T09:08:41;99866.06;;;17.46;33.63
16331;BME280;8275;48.206;16.340;2024-02-21T09:11:10;99863.44;;;17.70;33.57
16331;BME280;8275;48.206;16.340;2024-02-21T09:13:39;99862.41;;;17.94;33.55
16331;BME280;8275;48.206;16.340;2024-02-21T09:16:08;99865.53;;;18.16;33.26
16331;BME280;8275;48.206;16.340;2024-02-21T09:18:37;99850.34;;;18.38;33.18
16331;BME280;8275;48.206;16.340;2024-02-21T09:21:05;99850.22;;;18.53;32.83
16331;BME280;8275;48.206;16.340;2024-02-21T09:23:34;99842.03;;;18.66;32.91
16331;BME280;8275;48.206;16.340;2024-02-21T09:26:04;99845.03;;;18.70;31.62
16331;BME280;8275;48.206;16.340;2024-02-21T09:28:33;99840.56;;;18.74;32.18
16331;BME280;8275;48.206;16.340;2024-02-21T09:31:02;99845.03;;;18.70;30.41
16331;BME280;8275;48.206;16.340;2024-02-21T09:33:30;99841.38;;;18.51;30.16
16331;BME280;8275;48.206;16.340;2024-02-21T09:35:59;99836.78;;;18.36;30.97
16331;BME280;8275;48.206;16.340;2024-02-21T09:38:28;99843.22;;;18.32;31.33
16331;BME280;8275;48.206;16.340;2024-02-21T09:41:03;99839.59;;;18.31;30.98
16331;BME280;8275;48.206;16.340;2024-02-21T09:43:34;99837.66;;;18.32;30.93
16331;BME280;8275;48.206;16.340;2024-02-21T09:46:03;99836.00;;;18.31;31.10
16331;BME280;8275;48.206;16.340;2024-02-21T09:48:46;99824.63;;;18.32;31.17
16331;BME280;8275;48.206;16.340;2024-02-21T09:51:19;99828.69;;;18.40;31.19
16331;BME280;8275;48.206;16.340;2024-02-21T09:53:49;99824.47;;;18.47;31.00
16331;BME280;8275;48.206;16.340;2024-02-21T09:56:33;99816.28;;;18.61;31.25
16331;BME280;8275;48.206;16.340;2024-02-21T09:59:03;99823.91;;;18.74;30.25
16331;BME280;8275;48.206;16.340;2024-02-21T10:01:33;99811.00;;;18.83;30.64
16331;BME280;8275;48.206;16.340;2024-02-21T10:04:02;99811.84;;;19.02;31.11
16331;BME280;8275;48.206;16.340;2024-02-21T10:06:32;99812.63;;;19.26;31.06
16331;BME280;8275;48.206;16.340;2024-02-21T10:09:02;99821.13;;;19.53;31.16
16331;BME280;8275;48.206;16.340;2024-02-21T10:11:30;99816.50;;;19.81;31.14
16331;BME280;8275;48.206;16.340;2024-02-21T10:14:07;99815.13;;;19.97;30.83
16331;BME280;8275;48.206;16.340;2024-02-21T10:16:36;99813.50;;;20.10;30.78
16331;BME280;8275;48.206;16.340;2024-02-21T10:19:05;99808.91;;;20.19;30.09
16331;BME280;8275;48.206;16.340;2024-02-21T10:21:33;99807.91;;;20.28;30.21
16331;BME280;8275;48.206;16.340;2024-02-21T10:24:02;99802.97;;;20.39;29.41
16331;BME280;8275;48.206;16.340;2024-02-21T10:26:31;99800.63;;;20.46;29.81
16331;BME280;8275;48.206;16.340;2024-02-21T10:29:01;99799.38;;;20.52;29.82
16331;BME280;8275;48.206;16.340;2024-02-21T10:31:31;99797.00;;;20.59;29.46
16331;BME280;8275;48.206;16.340;2024-02-21T10:34:01;99799.06;;;20.67;29.21
16331;BME280;8275;48.206;16.340;2024-02-21T10:36:31;99794.53;;;20.71;28.40
16331;BME280;8275;48.206;16.340;2024-02-21T10:38:59;99797.41;;;20.66;27.77
16331;BME280;8275;48.206;16.340;2024-02-21T10:41:28;99788.56;;;20.51;27.24
16331;BME280;8275;48.206;16.340;2024-02-21T10:44:00;99778.53;;;20.36;27.70
16331;BME280;8275;48.206;16.340;2024-02-21T10:46:32;99781.09;;;20.19;27.94
16331;BME280;8275;48.206;16.340;2024-02-21T10:49:21;99774.47;;;20.15;28.45
16331;BME280;8275;48.206;16.340;2024-02-21T10:52:07;99777.69;;;20.22;28.30
16331;BME280;8275;48.206;16.340;2024-02-21T10:54:47;99775.94;;;20.26;28.57
16331;BME280;8275;48.206;16.340;2024-02-21T10:57:17;99768.84;;;20.34;28.89
16331;BME280;8275;48.206;16.340;2024-02-21T10:59:48;99764.31;;;20.38;29.27
16331;BME280;8275;48.206;16.340;2024-02-21T11:02:18;99771.03;;;20.37;29.26
16331;BME280;8275;48.206;16.340;2024-02-21T11:04:48;99773.06;;;20.31;29.08
16331;BME280;8275;48.206;16.340;2024-02-21T11:07:17;99773.16;;;20.26;28.98
16331;BME280;8275;48.206;16.340;2024-02-21T11:09:51;99755.50;;;20.17;29.07
16331;BME280;8275;48.206;16.340;2024-02-21T11:12:23;99757.56;;;20.11;28.98
16331;BME280;8275;48.206;16.340;2024-02-21T11:14:52;99756.84;;;20.06;29.25
16331;BME280;8275;48.206;16.340;2024-02-21T11:17:22;99758.06;;;20.00;29.02
16331;BME280;8275;48.206;16.340;2024-02-21T11:19:54;99752.69;;;19.90;29.01
16331;BME280;8275;48.206;16.340;2024-02-21T11:22:22;99749.56;;;19.78;28.61
16331;BME280;8275;48.206;16.340;2024-02-21T11:25:06;99750.22;;;19.56;28.28
16331;BME280;8275;48.206;16.340;2024-02-21T11:27:39;99756.34;;;19.39;27.86
16331;BME280;8275;48.206;16.340;2024-02-21T11:30:13;99748.28;;;19.19;28.51
16331;BME280;8275;48.206;16.340;2024-02-21T11:32:44;99745.13;;;19.07;28.80
16331;BME280;8275;48.206;16.340;2024-02-21T11:35:20;99745.00;;;18.99;28.79
16331;BME280;8275;48.206;16.340;2024-02-21T11:37:48;99737.03;;;18.92;28.71
16331;BME280;8275;48.206;16.340;2024-02-21T11:40:17;99729.91;;;18.86;29.00
16331;BME280;8275;48.206;16.340;2024-02-21T11:42:46;99726.06;;;18.82;29.04
16331;BME280;8275;48.206;16.340;2024-02-21T11:45:15;99725.75;;;18.83;29.26
16331;BME280;8275;48.206;16.340;2024-02-21T11:47:46;99716.78;;;18.91;29.42
16331;BME280;8275;48.206;16.340;2024-02-21T11:50:16;99711.69;;;18.99;29.07
16331;BME280;8275;48.206;16.340;2024-02-21T11:52:48;99699.59;;;19.08;29.17
16331;BME280;8275;48.206;16.340;2024-02-21T11:55:17;99696.13;;;19.16;28.54
16331;BME280;8275;48.206;16.340;2024-02-21T11:57:48;99694.38;;;19.20;28.40
16331;BME280;8275;48.206;16.340;2024-02-21T12:00:18;99690.47;;;19.21;27.78
16331;BME280;8275;48.206;16.340;2024-02-21T12:02:50;99689.97;;;19.19;28.24
16331;BME280;8275;48.206;16.340;2024-02-21T12:05:19;99693.06;;;19.18;27.65
16331;BME280;8275;48.206;16.340;2024-02-21T12:07:48;99682.31;;;19.11;28.18
16331;BME280;8275;48.206;16.340;2024-02-21T12:10:17;99676.53;;;19.08;28.34
16331;BME280;8275;48.206;16.340;2024-02-21T12:12:45;99676.84;;;19.06;28.45
16331;BME280;8275;48.206;16.340;2024-02-21T12:15:14;99679.31;;;19.08;28.76
16331;BME280;8275;48.206;16.340;2024-02-21T12:17:43;99674.28;;;19.10;28.42
16331;BME280;8275;48.206;16.340;2024-02-21T12:20:14;99670.69;;;19.09;28.61
16331;BME280;8275;48.206;16.340;2024-02-21T12:22:43;99668.66;;;19.15;28.71
16331;BME280;8275;48.206;16.340;2024-02-21T12:25:18;99668.94;;;19.13;28.41
16331;BME280;8275;48.206;16.340;2024-02-21T12:27:47;99658.97;;;19.12;28.27
16331;BME280;8275;48.206;16.340;2024-02-21T12:30:16;99652.91;;;19.10;28.32
16331;BME280;8275;48.206;16.340;2024-02-21T12:32:45;99655.75;;;19.05;28.19
16331;BME280;8275;48.206;16.340;2024-02-21T12:35:15;99665.31;;;18.99;27.77
16331;BME280;8275;48.206;16.340;2024-02-21T12:37:44;99660.72;;;18.89;27.76
16331;BME280;8275;48.206;16.340;2024-02-21T12:40:13;99661.19;;;18.78;27.58
16331;BME280;8275;48.206;16.340;2024-02-21T12:42:42;99655.25;;;18.66;27.73
16331;BME280;8275;48.206;16.340;2024-02-21T12:45:12;99656.47;;;18.60;28.11
16331;BME280;8275;48.206;16.340;2024-02-21T12:47:43;99646.47;;;18.59;28.45
16331;BME280;8275;48.206;16.340;2024-02-21T12:50:11;99636.94;;;18.65;28.68
16331;BME280;8275;48.206;16.340;2024-02-21T12:52:44;99632.41;;;18.74;28.63
16331;BME280;8275;48.206;16.340;2024-02-21T12:55:12;99635.81;;;18.84;27.94
16331;BME280;8275;48.206;16.340;2024-02-21T12:57:41;99629.16;;;18.85;27.80
16331;BME280;8275;48.206;16.340;2024-02-21T13:00:11;99627.69;;;18.88;27.32
16331;BME280;8275;48.206;16.340;2024-02-21T13:02:39;99613.03;;;18.87;27.73
16331;BME280;8275;48.206;16.340;2024-02-21T13:05:08;99618.47;;;18.92;27.54
16331;BME280;8275;48.206;16.340;2024-02-21T13:07:37;99609.03;;;18.93;27.23